Time;durP1;ratioP1;P1;durP2;ratioP2;P2;SDS_P1;SDS_P2;PMS_P1;PMS_P2;Temp;Humidity;BMP_temperature;BMP_pressure;BME280_temperature;BME280_humidity;BME280_pressure;Samples;Min_cycle;Max_cycle;Signal;HPM_P1;HPM_P2
2024/01/24 00:00:41;;;;;;;1.73;0.77;;;17.70;44.20;;;;;;5065182;28;45487;-64
2024/01/24 00:03:07;;;;;;;0.90;0.68;;;17.70;44.20;;;;;;5065314;28;45398;-64
2024/01/24 00:05:34;;;;;;;0.75;0.60;;;17.70;44.20;;;;;;5065316;28;45253;-64
2024/01/24 00:08:02;;;;;;;0.88;0.65;;;17.70;44.20;;;;;;5062302;28;45545;-63
2024/01/24 00:10:29;;;;;;;0.75;0.57;;;17.70;44.20;;;;;;5064869;28;45416;-64
2024/01/24 00:12:56;;;;;;;0.65;0.65;;;17.70;44.20;;;;;;5065143;28;45305;-64
2024/01/24 00:15:23;;;;;;;0.85;0.50;;;17.60;44.20;;;;;;5065288;28;45340;-65
2024/01/24 00:17:50;;;;;;;0.65;0.65;;;17.60;44.20;;;;;;5064907;28;45320;-64
2024/01/24 00:20:16;;;;;;;0.52;0.45;;;17.60;44.20;;;;;;5065141;28;45528;-64
2024/01/24 00:22:43;;;;;;;1.10;0.63;;;17.60;44.90;;;;;;5065193;28;45313;-64
2024/01/24 00:25:12;;;;;;;1.77;0.43;;;17.60;44.30;;;;;;5065146;28;45358;-64
2024/01/24 00:27:44;;;;;;;1.77;0.60;;;17.60;44.30;;;;;;5064643;28;46581;-64
2024/01/24 00:30:11;;;;;;;1.15;0.73;;;17.60;44.30;;;;;;5074374;28;45382;-64
2024/01/24 00:32:39;;;;;;;3.47;0.98;;;17.50;44.20;;;;;;5085405;28;45338;-64
2024/01/24 00:35:06;;;;;;;0.95;0.60;;;17.50;44.80;;;;;;5085503;28;45439;-64
2024/01/24 00:37:33;;;;;;;1.27;0.57;;;17.50;44.20;;;;;;5084868;28;47071;-64
2024/01/24 00:40:00;;;;;;;0.77;0.50;;;17.50;44.30;;;;;;5084932;28;45398;-65
2024/01/24 00:42:28;;;;;;;0.80;0.70;;;17.50;44.30;;;;;;5084734;28;45491;-65
2024/01/24 00:44:55;;;;;;;2.25;0.90;;;17.50;44.30;;;;;;5085209;28;45451;-64
2024/01/24 00:47:22;;;;;;;0.60;0.50;;;17.50;44.90;;;;;;5084780;28;46714;-64
2024/01/24 00:49:49;;;;;;;0.98;0.63;;;17.50;44.40;;;;;;5084931;28;45383;-64
2024/01/24 00:52:16;;;;;;;0.20;0.20;;;17.50;44.40;;;;;;5082412;28;45482;-63
2024/01/24 00:54:43;;;;;;;0.70;0.70;;;17.50;44.40;;;;;;5085229;28;45245;-64
2024/01/24 00:57:11;;;;;;;0.73;0.55;;;17.40;44.40;;;;;;5084925;28;45337;-63
2024/01/24 00:59:39;;;;;;;0.65;0.60;;;17.40;44.40;;;;;;5084914;28;45381;-63
2024/01/24 01:02:06;;;;;;;1.02;0.40;;;17.40;44.40;;;;;;5085289;28;45342;-65
2024/01/24 01:04:33;;;;;;;0.40;0.40;;;17.40;44.40;;;;;;5085449;28;45367;-63
2024/01/24 01:06:59;;;;;;;0.88;0.50;;;17.40;44.50;;;;;;5086703;27;46336;-63
2024/01/24 01:09:26;;;;;;;0.50;0.43;;;17.40;44.50;;;;;;5088436;28;45282;-63
2024/01/24 01:11:53;;;;;;;0.95;0.50;;;17.40;44.50;;;;;;5088675;28;45381;-64
2024/01/24 01:14:20;;;;;;;0.32;0.32;;;17.40;44.50;;;;;;5088454;28;45370;-63
2024/01/24 01:16:48;;;;;;;0.85;0.52;;;17.40;44.50;;;;;;5088054;28;46603;-65
2024/01/24 01:19:15;;;;;;;1.17;0.43;;;17.40;44.60;;;;;;5087927;28;45317;-66
2024/01/24 01:21:42;;;;;;;1.10;0.80;;;17.40;44.60;;;;;;5088107;28;45323;-65
2024/01/24 01:24:09;;;;;;;0.90;0.50;;;17.40;44.60;;;;;;5088189;28;45494;-65
2024/01/24 01:26:36;;;;;;;0.40;0.40;;;17.30;44.60;;;;;;5087743;28;45342;-66
2024/01/24 01:29:03;;;;;;;0.35;0.35;;;17.30;44.60;;;;;;5087581;28;45371;-64
2024/01/24 01:31:30;;;;;;;0.50;0.47;;;17.30;44.60;;;;;;5088035;28;45307;-65
2024/01/24 01:33:58;;;;;;;1.67;0.57;;;17.30;44.60;;;;;;5088166;28;45291;-65
2024/01/24 01:36:25;;;;;;;1.23;0.55;;;17.30;44.70;;;;;;5087500;28;46485;-65
2024/01/24 01:38:51;;;;;;;0.30;0.30;;;17.30;44.70;;;;;;5087644;28;45474;-64
2024/01/24 01:41:18;;;;;;;1.17;0.60;;;17.30;44.70;;;;;;5087089;28;45374;-64
2024/01/24 01:43:45;;;;;;;0.63;0.50;;;17.30;44.70;;;;;;5087788;28;45323;-64
2024/01/24 01:46:16;;;;;;;1.83;0.60;;;17.30;44.70;;;;;;5087452;28;47313;-64
2024/01/24 01:48:43;;;;;;;0.70;0.38;;;17.30;44.80;;;;;;5087193;28;45345;-64
2024/01/24 01:51:11;;;;;;;1.40;0.55;;;17.30;44.80;;;;;;5087240;28;45298;-64
2024/01/24 01:53:39;;;;;;;0.75;0.52;;;17.30;44.80;;;;;;5087793;28;45491;-64
2024/01/24 01:56:07;;;;;;;0.40;0.40;;;17.30;44.80;;;;;;5087328;28;47544;-64
2024/01/24 01:58:34;;;;;;;1.23;0.65;;;17.30;44.90;;;;;;5087207;28;45350;-64
2024/01/24 02:01:01;;;;;;;0.50;0.40;;;17.30;44.90;;;;;;5087411;28;45217;-64
2024/01/24 02:03:28;;;;;;;0.30;0.30;;;17.30;45.50;;;;;;5088033;28;45410;-65
2024/01/24 02:05:55;;;;;;;1.08;0.47;;;17.20;44.90;;;;;;5087205;28;46383;-64
2024/01/24 02:08:23;;;;;;;0.45;0.45;;;17.20;44.90;;;;;;5087082;28;45328;-64
2024/01/24 02:10:50;;;;;;;0.68;0.43;;;17.20;44.90;;;;;;5087581;28;45329;-64
2024/01/24 02:13:17;;;;;;;0.85;0.65;;;17.20;45.00;;;;;;5087956;28;45447;-64
2024/01/24 02:15:43;;;;;;;0.38;0.38;;;17.20;45.00;;;;;;5087497;28;45344;-64
2024/01/24 02:18:10;;;;;;;0.40;0.40;;;17.20;45.00;;;;;;5086345;27;45405;-64
2024/01/24 02:20:37;;;;;;;0.65;0.60;;;17.20;45.00;;;;;;5087506;28;45396;-64
2024/01/24 02:23:04;;;;;;;0.40;0.40;;;17.20;45.00;;;;;;5087752;28;45651;-64
2024/01/24 02:25:32;;;;;;;0.65;0.60;;;17.20;45.10;;;;;;5087165;28;45260;-64
2024/01/24 02:27:59;;;;;;;1.35;0.55;;;17.20;45.00;;;;;;5086909;28;45513;-64
2024/01/24 02:30:26;;;;;;;2.05;0.40;;;17.20;45.10;;;;;;5087006;28;45385;-64
2024/01/24 02:32:53;;;;;;;0.63;0.40;;;17.20;45.10;;;;;;5087261;28;45309;-64
2024/01/24 02:35:20;;;;;;;1.00;0.50;;;17.20;45.10;;;;;;5086656;28;46217;-64
2024/01/24 02:37:46;;;;;;;0.38;0.38;;;17.20;45.10;;;;;;5086826;28;45296;-64
2024/01/24 02:40:13;;;;;;;1.40;0.60;;;17.20;45.10;;;;;;5086644;28;45341;-64
2024/01/24 02:42:42;;;;;;;0.55;0.45;;;17.20;45.20;;;;;;5086974;28;45367;-64
2024/01/24 02:45:09;;;;;;;0.75;0.50;;;17.20;45.20;;;;;;5086518;28;45350;-64
2024/01/24 02:47:36;;;;;;;0.50;0.32;;;17.20;45.20;;;;;;5086547;28;45146;-64
2024/01/24 02:50:04;;;;;;;0.80;0.20;;;17.20;45.20;;;;;;5086655;28;45351;-64
2024/01/24 02:52:31;;;;;;;0.40;0.40;;;17.20;45.20;;;;;;5086809;28;45396;-64
2024/01/24 02:54:58;;;;;;;0.70;0.63;;;17.20;45.20;;;;;;5086483;28;46309;-64
2024/01/24 02:57:31;;;;;;;0.43;0.43;;;17.20;45.20;;;;;;5086503;28;45248;-64
2024/01/24 02:59:59;;;;;;;0.40;0.40;;;17.20;45.20;;;;;;5086395;28;45357;-64
2024/01/24 03:02:26;;;;;;;0.40;0.40;;;17.20;45.10;;;;;;5086520;28;45404;-64
2024/01/24 03:04:53;;;;;;;0.63;0.50;;;17.20;45.20;;;;;;5086376;28;45343;-64
2024/01/24 03:07:20;;;;;;;1.75;0.63;;;17.20;45.30;;;;;;5086362;28;45385;-64
2024/01/24 03:09:47;;;;;;;0.70;0.57;;;17.20;45.30;;;;;;5086420;28;45336;-64
2024/01/24 03:12:14;;;;;;;1.55;0.45;;;17.20;45.30;;;;;;5086486;28;45329;-64
2024/01/24 03:14:40;;;;;;;0.93;0.63;;;17.10;45.30;;;;;;5086145;28;45283;-64
2024/01/24 03:17:09;;;;;;;0.82;0.50;;;17.10;45.30;;;;;;5086062;28;45205;-64
2024/01/24 03:19:35;;;;;;;0.85;0.32;;;17.10;45.30;;;;;;5085939;28;45547;-64
2024/01/24 03:22:02;;;;;;;0.80;0.50;;;17.10;45.30;;;;;;5086227;28;45321;-64
2024/01/24 03:24:29;;;;;;;0.70;0.43;;;17.10;45.40;;;;;;5085942;28;46379;-64
2024/01/24 03:26:56;;;;;;;0.82;0.50;;;17.10;45.40;;;;;;5085957;28;45314;-64
2024/01/24 03:29:23;;;;;;;0.30;0.30;;;17.10;45.40;;;;;;5085814;27;45319;-64
2024/01/24 03:31:50;;;;;;;1.35;0.38;;;17.10;45.40;;;;;;5085957;28;45508;-64
2024/01/24 03:34:18;;;;;;;0.57;0.40;;;17.10;45.40;;;;;;5085635;28;47470;-64
2024/01/24 03:36:45;;;;;;;1.25;0.55;;;17.10;45.40;;;;;;5085727;28;45251;-64
2024/01/24 03:39:12;;;;;;;1.17;0.50;;;17.10;45.40;;;;;;5085767;28;45299;-64
2024/01/24 03:41:38;;;;;;;0.57;0.47;;;17.10;45.40;;;;;;5085517;28;45169;-64
2024/01/24 03:44:05;;;;;;;0.47;0.47;;;17.10;45.40;;;;;;5085458;28;46159;-65
2024/01/24 03:46:32;;;;;;;1.45;0.45;;;17.10;45.40;;;;;;5085684;28;45347;-64
2024/01/24 03:48:59;;;;;;;0.75;0.57;;;17.10;45.40;;;;;;5085488;28;45399;-64
2024/01/24 03:51:28;;;;;;;1.27;0.50;;;17.10;45.50;;;;;;5085801;28;45404;-64
2024/01/24 03:53:54;;;;;;;1.27;0.40;;;17.10;45.50;;;;;;5085280;28;46592;-64
2024/01/24 03:56:21;;;;;;;0.98;0.60;;;17.10;45.50;;;;;;5085627;28;45439;-64
2024/01/24 03:58:53;;;;;;;1.35;0.50;;;17.10;45.50;;;;;;5085231;28;45349;-64
2024/01/24 04:01:20;;;;;;;0.57;0.43;;;17.10;45.50;;;;;;5085669;28;45541;-64
2024/01/24 04:03:48;;;;;;;1.10;0.60;;;17.10;45.60;;;;;;5085261;28;45359;-64
2024/01/24 04:06:15;;;;;;;0.75;0.70;;;17.10;45.60;;;;;;5085313;28;45515;-64
2024/01/24 04:08:45;;;;;;;1.38;0.55;;;17.10;45.80;;;;;;5085482;28;45529;-64
2024/01/24 04:11:12;;;;;;;0.93;0.40;;;17.10;45.70;;;;;;5085365;28;45343;-64
2024/01/24 04:13:42;;;;;;;1.13;0.40;;;17.10;45.60;;;;;;5084974;28;45745;-64
2024/01/24 04:16:09;;;;;;;0.85;0.43;;;17.20;45.50;;;;;;5085522;28;45339;-64
2024/01/24 04:18:35;;;;;;;1.38;0.50;;;17.30;45.50;;;;;;5085246;28;45479;-64
2024/01/24 04:21:02;;;;;;;0.88;0.40;;;17.30;45.30;;;;;;5085676;28;45412;-64
2024/01/24 04:23:29;;;;;;;1.35;0.40;;;17.40;45.10;;;;;;5085039;28;46238;-64
2024/01/24 04:25:57;;;;;;;0.35;0.20;;;17.50;45.00;;;;;;5085048;28;45335;-64
2024/01/24 04:28:24;;;;;;;0.90;0.40;;;17.60;44.80;;;;;;5085096;28;45392;-64
2024/01/24 04:30:51;;;;;;;0.38;0.38;;;17.70;44.60;;;;;;5085048;28;45462;-64
2024/01/24 04:33:18;;;;;;;0.45;0.40;;;17.80;44.50;;;;;;5084935;28;45506;-64
2024/01/24 04:35:45;;;;;;;0.77;0.30;;;17.90;44.40;;;;;;5084664;28;45395;-64
2024/01/24 04:38:12;;;;;;;0.90;0.45;;;18.00;44.20;;;;;;5084960;28;45325;-64
2024/01/24 04:40:39;;;;;;;0.38;0.38;;;18.10;44.10;;;;;;5084851;28;45316;-64
2024/01/24 04:43:08;;;;;;;0.50;0.50;;;18.20;44.00;;;;;;5088073;28;47285;-64
2024/01/24 04:45:35;;;;;;;0.55;0.35;;;18.20;43.80;;;;;;5088399;28;45360;-64
2024/01/24 04:48:02;;;;;;;0.50;0.43;;;18.30;43.70;;;;;;5088339;28;45318;-64
2024/01/24 04:50:29;;;;;;;0.55;0.32;;;18.40;43.70;;;;;;5088677;28;45412;-64
2024/01/24 04:52:55;;;;;;;0.60;0.40;;;18.40;43.40;;;;;;5088127;28;47275;-65
2024/01/24 04:55:22;;;;;;;0.25;0.10;;;18.50;43.40;;;;;;5088390;28;45374;-64
2024/01/24 04:57:49;;;;;;;0.65;0.43;;;18.50;43.20;;;;;;5088365;28;45381;-64
2024/01/24 05:00:18;;;;;;;0.40;0.40;;;18.60;43.20;;;;;;5088244;28;45420;-64
2024/01/24 05:02:45;;;;;;;0.75;0.30;;;18.70;43.10;;;;;;5088157;28;45307;-64
2024/01/24 05:05:12;;;;;;;0.30;0.30;;;18.70;43.10;;;;;;5088187;28;45333;-65
2024/01/24 05:07:39;;;;;;;0.30;0.30;;;18.80;43.70;;;;;;5088182;28;45311;-64
2024/01/24 05:10:07;;;;;;;0.30;0.30;;;18.80;43.00;;;;;;5088274;28;45330;-64
2024/01/24 05:12:34;;;;;;;0.40;0.40;;;18.80;43.00;;;;;;5087859;28;45331;-64
2024/01/24 05:15:01;;;;;;;1.58;0.28;;;18.90;43.00;;;;;;5087783;28;45341;-64
2024/01/24 05:17:29;;;;;;;0.57;0.38;;;18.90;42.90;;;;;;5087932;28;45386;-64
2024/01/24 05:19:58;;;;;;;0.30;0.22;;;19.00;42.80;;;;;;5087985;28;45415;-64
2024/01/24 05:22:24;;;;;;;0.28;0.28;;;19.00;42.80;;;;;;5087705;28;45537;-64
2024/01/24 05:24:51;;;;;;;2.17;0.47;;;19.10;42.80;;;;;;5087767;28;45312;-65
2024/01/24 05:27:18;;;;;;;0.45;0.30;;;19.00;42.80;;;;;;5087690;28;45350;-64
2024/01/24 05:29:47;;;;;;;0.63;0.38;;;19.10;42.80;;;;;;5087729;28;45542;-64
2024/01/24 05:32:14;;;;;;;0.40;0.40;;;19.10;42.70;;;;;;5107777;27;47271;-64
2024/01/24 05:34:42;;;;;;;0.15;0.15;;;19.10;42.70;;;;;;5108157;27;45617;-64
2024/01/24 05:37:09;;;;;;;0.30;0.30;;;19.20;42.70;;;;;;5108393;27;45415;-64
2024/01/24 05:39:36;;;;;;;1.38;0.40;;;19.20;42.60;;;;;;5108665;27;45333;-64
2024/01/24 05:42:03;;;;;;;0.95;0.30;;;19.20;42.60;;;;;;5107872;27;45352;-64
2024/01/24 05:44:29;;;;;;;0.20;0.20;;;19.30;42.60;;;;;;5108110;27;45280;-64
2024/01/24 05:46:56;;;;;;;0.35;0.35;;;19.30;42.60;;;;;;5108409;27;45344;-65
2024/01/24 05:49:23;;;;;;;0.77;0.30;;;19.30;42.60;;;;;;5108353;27;45426;-64
2024/01/24 05:51:52;;;;;;;1.15;0.40;;;19.30;42.50;;;;;;5099723;27;45542;-64
2024/01/24 05:54:18;;;;;;;0.30;0.30;;;19.30;42.50;;;;;;5086473;28;45252;-64
2024/01/24 05:56:45;;;;;;;0.22;0.22;;;19.40;42.60;;;;;;5087756;28;45407;-64
2024/01/24 05:59:12;;;;;;;1.50;0.20;;;19.40;42.60;;;;;;5087504;28;45390;-64
2024/01/24 06:01:39;;;;;;;1.10;0.32;;;19.40;42.50;;;;;;5087240;28;46236;-64
2024/01/24 06:04:06;;;;;;;0.43;0.30;;;19.40;42.50;;;;;;5087406;28;45405;-64
2024/01/24 06:06:33;;;;;;;0.32;0.30;;;19.40;42.50;;;;;;5087339;28;45464;-65
2024/01/24 06:09:01;;;;;;;0.20;0.20;;;19.50;42.50;;;;;;5087680;28;45338;-64
2024/01/24 06:11:28;;;;;;;0.85;0.22;;;19.50;42.50;;;;;;5087048;28;46566;-64
2024/01/24 06:13:54;;;;;;;0.30;0.30;;;19.50;42.50;;;;;;5087167;28;45348;-64
2024/01/24 06:16:21;;;;;;;0.38;0.35;;;19.50;43.10;;;;;;5087509;28;45377;-65
2024/01/24 06:18:48;;;;;;;1.65;0.40;;;19.50;42.40;;;;;;5087692;28;45312;-65
2024/01/24 06:21:15;;;;;;;0.35;0.25;;;19.50;42.40;;;;;;5086853;28;45377;-65
2024/01/24 06:23:42;;;;;;;0.70;0.47;;;19.50;42.40;;;;;;5087299;28;45462;-65
2024/01/24 06:26:10;;;;;;;1.13;0.55;;;19.60;42.40;;;;;;5087254;28;45379;-65
2024/01/24 06:28:37;;;;;;;0.38;0.38;;;19.60;42.50;;;;;;5087335;28;45353;-65
2024/01/24 06:31:04;;;;;;;0.30;0.30;;;19.60;43.00;;;;;;5086581;28;47311;-64
2024/01/24 06:33:31;;;;;;;0.40;0.40;;;19.60;42.40;;;;;;5087021;28;45261;-65
2024/01/24 06:35:58;;;;;;;2.33;0.50;;;19.60;42.40;;;;;;5087122;28;45300;-65
2024/01/24 06:38:25;;;;;;;0.57;0.50;;;19.70;42.40;;;;;;5086983;28;45450;-65
2024/01/24 06:40:52;;;;;;;1.75;0.40;;;19.70;42.40;;;;;;5086106;28;46589;-64
2024/01/24 06:43:20;;;;;;;1.50;0.40;;;19.70;42.30;;;;;;5086823;28;45310;-65
2024/01/24 06:45:48;;;;;;;0.57;0.40;;;19.70;42.40;;;;;;5086883;28;45585;-66
2024/01/24 06:48:14;;;;;;;0.80;0.30;;;19.70;42.40;;;;;;5086847;28;45394;-65
2024/01/24 06:50:41;;;;;;;2.10;0.32;;;19.70;42.40;;;;;;5086449;28;45329;-66
2024/01/24 06:53:10;;;;;;;0.57;0.50;;;19.70;42.30;;;;;;5078241;28;45463;-66
2024/01/24 06:55:37;;;;;;;0.70;0.50;;;19.80;42.50;;;;;;5077791;27;45472;-66
2024/01/24 06:58:05;;;;;;;6.40;0.98;;;19.80;42.40;;;;;;5083955;27;45412;-67
2024/01/24 07:00:33;;;;;;;0.98;0.50;;;19.80;43.80;;;;;;5082683;27;46573;-66
2024/01/24 07:03:01;;;;;;;0.57;0.30;;;19.90;43.90;;;;;;5082837;27;45607;-67
2024/01/24 07:05:28;;;;;;;2.92;0.43;;;20.00;44.30;;;;;;5088621;27;45384;-67
2024/01/24 07:07:56;;;;;;;1.38;0.50;;;20.10;44.50;;;;;;5086657;27;45386;-65
2024/01/24 07:10:23;;;;;;;4.50;0.82;;;20.20;44.30;;;;;;5085849;27;45571;-68
2024/01/24 07:12:49;;;;;;;1.05;0.90;;;20.30;44.10;;;;;;5086501;27;45382;-66
2024/01/24 07:15:17;;;;;;;3.03;1.27;;;20.40;44.00;;;;;;5085185;27;45539;-65
2024/01/24 07:17:45;;;;;;;3.70;1.05;;;20.40;43.50;;;;;;5085929;27;45479;-66
2024/01/24 07:20:12;;;;;;;4.13;0.60;;;20.40;43.40;;;;;;5084901;27;45527;-65
2024/01/24 07:22:39;;;;;;;3.92;0.60;;;20.40;43.40;;;;;;5085542;27;45414;-66
2024/01/24 07:25:07;;;;;;;6.13;0.80;;;20.50;43.50;;;;;;5085779;27;45450;-67
2024/01/24 07:27:35;;;;;;;1.77;0.50;;;20.50;43.50;;;;;;5086286;28;45515;-65
2024/01/24 07:30:04;;;;;;;3.08;0.75;;;20.60;43.50;;;;;;5082810;27;45723;-65
2024/01/24 07:32:30;;;;;;;1.65;0.55;;;20.70;43.40;;;;;;5085684;27;45290;-65
2024/01/24 07:34:59;;;;;;;0.68;0.40;;;20.70;43.20;;;;;;5085686;27;45483;-67
2024/01/24 07:37:26;;;;;;;3.22;0.50;;;20.70;43.00;;;;;;5085251;27;45549;-66
2024/01/24 07:39:53;;;;;;;2.40;0.60;;;20.60;43.00;;;;;;5085845;27;46666;-67
2024/01/24 07:42:20;;;;;;;0.40;0.35;;;20.50;42.90;;;;;;5085600;27;45439;-67
2024/01/24 07:44:47;;;;;;;2.85;0.50;;;20.40;43.20;;;;;;5084960;27;45399;-67
2024/01/24 07:47:15;;;;;;;1.75;0.50;;;20.30;43.40;;;;;;5086773;28;45387;-67
2024/01/24 07:49:42;;;;;;;3.47;0.30;;;20.30;43.50;;;;;;5083339;27;45628;-67
2024/01/24 07:52:10;;;;;;;4.22;0.52;;;20.20;43.60;;;;;;5082295;27;45450;-67
2024/01/24 07:54:37;;;;;;;1.02;0.68;;;20.20;43.70;;;;;;5088254;27;45527;-66
2024/01/24 07:57:04;;;;;;;3.53;0.52;;;20.10;43.80;;;;;;5083323;27;45373;-66
2024/01/24 07:59:31;;;;;;;3.40;0.63;;;20.10;43.90;;;;;;5083243;28;46377;-65
2024/01/24 08:01:58;;;;;;;1.70;0.45;;;20.00;44.40;;;;;;5085090;28;45735;-65
2024/01/24 08:04:25;;;;;;;1.92;0.45;;;20.00;44.60;;;;;;5085220;27;46853;-65
2024/01/24 08:06:52;;;;;;;5.40;0.80;;;19.90;44.70;;;;;;5085697;28;45271;-65
2024/01/24 08:09:20;;;;;;;1.17;0.47;;;19.90;44.80;;;;;;5085583;28;46655;-67
2024/01/24 08:11:47;;;;;;;1.88;0.47;;;19.90;44.90;;;;;;5085223;27;45601;-66
2024/01/24 08:14:14;;;;;;;5.90;0.70;;;19.80;44.90;;;;;;5085334;27;45225;-65
2024/01/24 08:16:41;;;;;;;0.75;0.60;;;19.80;45.10;;;;;;5085045;27;45240;-65
2024/01/24 08:19:07;;;;;;;0.43;0.25;;;19.80;45.20;;;;;;5085148;27;46371;-65
2024/01/24 08:21:34;;;;;;;0.95;0.50;;;19.80;45.30;;;;;;5084858;27;45461;-66
2024/01/24 08:24:01;;;;;;;0.40;0.40;;;19.70;45.30;;;;;;5085782;28;45468;-66
2024/01/24 08:26:29;;;;;;;0.77;0.50;;;19.70;45.40;;;;;;5085716;28;45279;-65
2024/01/24 08:28:59;;;;;;;2.40;0.45;;;19.70;45.50;;;;;;5084259;27;45260;-65
2024/01/24 08:31:25;;;;;;;0.77;0.50;;;19.70;45.50;;;;;;5077701;27;46499;-65
2024/01/24 08:33:52;;;;;;;1.67;0.68;;;19.70;45.50;;;;;;5084440;27;45594;-65
2024/01/24 08:36:19;;;;;;;0.75;0.45;;;19.70;45.50;;;;;;5084718;27;46118;-66
2024/01/24 08:38:46;;;;;;;1.17;0.52;;;19.80;45.60;;;;;;5082744;28;45870;-66
2024/01/24 08:41:13;;;;;;;3.28;0.85;;;19.80;45.60;;;;;;5082492;27;45464;-64
2024/01/24 08:43:42;;;;;;;2.90;0.77;;;19.90;45.50;;;;;;5078424;27;45529;-64
2024/01/24 08:46:09;;;;;;;1.45;0.63;;;19.90;45.40;;;;;;5082029;27;45574;-65
2024/01/24 08:48:35;;;;;;;0.93;0.50;;;20.00;45.40;;;;;;5076950;28;46738;-64
2024/01/24 08:51:02;;;;;;;0.65;0.50;;;20.00;45.30;;;;;;5081182;28;45411;-64
2024/01/24 08:53:29;;;;;;;2.75;0.82;;;20.00;45.30;;;;;;5081500;28;45541;-63
2024/01/24 08:55:56;;;;;;;1.20;1.10;;;20.00;45.30;;;;;;5080132;27;45490;-64
2024/01/24 08:58:23;;;;;;;1.73;1.27;;;20.00;45.20;;;;;;5081566;28;46499;-63
2024/01/24 09:00:51;;;;;;;6.90;1.60;;;20.10;45.30;;;;;;5082075;28;45441;-63
2024/01/24 09:03:18;;;;;;;2.00;1.20;;;20.10;45.20;;;;;;5081930;28;45403;-64
2024/01/24 09:05:45;;;;;;;2.88;1.08;;;20.10;45.20;;;;;;5080024;28;45594;-63
2024/01/24 09:08:12;;;;;;;4.07;1.08;;;20.20;45.30;;;;;;5081155;27;45434;-63
2024/01/24 09:10:39;;;;;;;5.68;1.05;;;20.20;45.20;;;;;;5078632;28;45478;-63
2024/01/24 09:13:06;;;;;;;1.60;1.33;;;20.20;45.40;;;;;;5081828;28;45324;-62
2024/01/24 09:15:33;;;;;;;2.40;1.10;;;20.20;45.40;;;;;;5077347;28;45281;-63
2024/01/24 09:18:01;;;;;;;3.25;1.25;;;20.20;46.00;;;;;;5081438;28;47009;-64
2024/01/24 09:20:28;;;;;;;2.17;0.95;;;20.30;45.50;;;;;;5080848;28;45391;-64
2024/01/24 09:22:55;;;;;;;2.63;1.00;;;20.30;45.50;;;;;;5082124;28;45470;-64
2024/01/24 09:25:22;;;;;;;1.92;1.10;;;20.30;45.50;;;;;;5085749;27;45506;-64
2024/01/24 09:27:48;;;;;;;1.30;1.20;;;20.30;45.50;;;;;;5086457;27;46632;-64
2024/01/24 09:30:15;;;;;;;1.50;1.38;;;20.30;45.50;;;;;;5084603;28;45459;-64
2024/01/24 09:32:42;;;;;;;6.00;1.40;;;20.30;45.50;;;;;;5085325;28;45382;-66
2024/01/24 09:35:11;;;;;;;2.80;1.20;;;20.30;45.50;;;;;;5085664;27;45503;-64
2024/01/24 09:37:37;;;;;;;4.72;1.17;;;20.30;45.50;;;;;;5077340;27;45487;-64
2024/01/24 09:40:06;;;;;;;2.90;1.17;;;20.30;45.20;;;;;;5090972;27;45877;-64
2024/01/24 09:42:33;;;;;;;0.88;0.88;;;20.30;45.40;;;;;;5087624;28;45383;-63
2024/01/24 09:45:00;;;;;;;1.80;1.30;;;20.30;45.40;;;;;;5087960;27;45312;-64
2024/01/24 09:47:27;;;;;;;3.38;1.38;;;20.30;45.50;;;;;;5087656;28;45471;-63
2024/01/24 09:49:54;;;;;;;4.03;1.10;;;20.30;45.60;;;;;;5087513;28;45309;-64
2024/01/24 09:52:23;;;;;;;3.38;1.65;;;20.30;45.60;;;;;;5087776;27;45382;-64
2024/01/24 09:54:51;;;;;;;3.63;1.42;;;20.30;45.60;;;;;;5087847;27;45295;-64
2024/01/24 09:57:18;;;;;;;2.33;1.48;;;20.30;45.50;;;;;;5087237;28;45669;-63
2024/01/24 09:59:44;;;;;;;2.15;1.70;;;20.30;45.60;;;;;;5087266;28;45254;-63
2024/01/24 10:02:12;;;;;;;3.25;1.60;;;20.30;45.70;;;;;;5087335;28;45337;-64
2024/01/24 10:04:39;;;;;;;6.45;1.98;;;20.30;45.70;;;;;;5087698;27;45413;-63
2024/01/24 10:07:06;;;;;;;7.20;2.15;;;20.30;45.70;;;;;;5097432;27;45488;-63
2024/01/24 10:09:34;;;;;;;3.25;1.73;;;20.30;45.80;;;;;;5089370;27;45462;-63
2024/01/24 10:12:01;;;;;;;1.95;1.60;;;20.30;45.90;;;;;;5087434;28;45439;-63
2024/01/24 10:14:28;;;;;;;4.00;1.70;;;20.30;46.00;;;;;;5088624;27;45376;-63
2024/01/24 10:16:55;;;;;;;1.95;1.80;;;20.30;46.00;;;;;;5087493;27;45359;-64
2024/01/24 10:19:23;;;;;;;4.22;1.50;;;20.30;45.90;;;;;;5087131;27;45322;-64
2024/01/24 10:21:50;;;;;;;2.40;1.60;;;20.30;46.20;;;;;;5087207;27;45461;-64
2024/01/24 10:24:17;;;;;;;4.78;2.58;;;20.30;46.30;;;;;;5090325;27;45414;-63
2024/01/24 10:26:45;;;;;;;5.90;2.90;;;20.30;46.30;;;;;;5106511;27;45520;-63
2024/01/24 10:29:12;;;;;;;3.58;2.28;;;20.30;46.30;;;;;;5104662;27;45398;-63
2024/01/24 10:31:39;;;;;;;4.25;2.15;;;20.30;46.90;;;;;;5087078;28;45264;-63
2024/01/24 10:34:06;;;;;;;6.25;4.38;;;20.30;46.30;;;;;;5095976;27;45447;-63
2024/01/24 10:36:33;;;;;;;5.70;3.28;;;20.30;46.40;;;;;;5107467;27;46309;-65
2024/01/24 10:39:00;;;;;;;4.03;2.83;;;20.30;46.40;;;;;;5099120;27;45366;-65
2024/01/24 10:41:28;;;;;;;4.00;3.00;;;20.40;46.40;;;;;;5087073;27;45539;-64
2024/01/24 10:43:57;;;;;;;8.27;2.45;;;20.40;46.10;;;;;;5086958;28;45327;-65
2024/01/24 10:46:25;;;;;;;3.47;2.53;;;20.40;45.90;;;;;;5086715;28;45370;-64
2024/01/24 10:48:52;;;;;;;4.22;2.38;;;20.40;45.90;;;;;;5089952;27;45280;-64
2024/01/24 10:51:19;;;;;;;5.28;2.20;;;20.50;45.90;;;;;;5103270;27;45382;-64
2024/01/24 10:53:45;;;;;;;4.63;2.25;;;20.50;45.80;;;;;;5087037;27;45291;-64
2024/01/24 10:56:13;;;;;;;3.95;2.33;;;20.50;45.70;;;;;;5086251;28;46388;-64
2024/01/24 10:58:40;;;;;;;4.70;2.08;;;20.50;45.50;;;;;;5100769;27;45878;-62
2024/01/24 11:01:08;;;;;;;4.47;2.25;;;20.50;45.50;;;;;;5106404;27;45270;-64
2024/01/24 11:03:35;;;;;;;4.13;2.13;;;20.50;45.50;;;;;;5087354;27;45548;-64
2024/01/24 11:06:05;;;;;;;3.10;2.28;;;20.60;45.40;;;;;;5086416;27;45383;-62
2024/01/24 11:08:33;;;;;;;2.90;1.77;;;20.60;45.40;;;;;;5086626;27;45360;-62
2024/01/24 11:11:02;;;;;;;5.05;2.00;;;20.60;45.40;;;;;;5106530;27;45367;-64
2024/01/24 11:13:29;;;;;;;3.72;1.83;;;20.60;45.40;;;;;;5106929;27;45467;-64
2024/01/24 11:15:56;;;;;;;3.97;1.90;;;20.60;45.40;;;;;;5105778;27;48355;-64
2024/01/24 11:18:25;;;;;;;1.65;1.50;;;20.60;45.50;;;;;;5106531;27;45295;-64
2024/01/24 11:20:53;;;;;;;2.30;1.85;;;20.60;45.60;;;;;;5085999;27;45387;-64
2024/01/24 11:23:38;;;;;;;2.40;1.88;;;20.60;45.50;;;;;;5086181;28;45370;-65
2024/01/24 11:26:05;;;;;;;3.95;1.70;;;20.60;45.70;;;;;;5087113;27;45476;-64
2024/01/24 11:28:32;;;;;;;1.83;1.48;;;20.50;45.70;;;;;;5086929;27;45341;-63
2024/01/24 11:30:59;;;;;;;4.95;1.63;;;20.50;46.00;;;;;;5089423;27;45257;-64
2024/01/24 11:33:27;;;;;;;1.60;1.50;;;20.50;45.80;;;;;;5093967;27;45412;-64
2024/01/24 11:35:54;;;;;;;5.88;2.05;;;20.50;45.80;;;;;;5085665;28;45415;-64
2024/01/24 11:38:33;;;;;;;1.63;1.50;;;20.50;45.80;;;;;;5085676;27;45351;-64
2024/01/24 11:41:01;;;;;;;1.65;1.52;;;20.50;46.60;;;;;;5081471;27;45314;-64
2024/01/24 11:43:29;;;;;;;2.25;1.40;;;20.50;46.00;;;;;;5085849;28;45398;-64
2024/01/24 11:45:55;;;;;;;1.98;1.33;;;20.40;46.00;;;;;;5085703;27;45481;-64
2024/01/24 11:48:22;;;;;;;3.03;1.48;;;20.40;46.00;;;;;;5085474;28;45335;-65
2024/01/24 11:50:56;;;;;;;1.48;1.38;;;20.40;46.00;;;;;;5084604;27;45442;-64
2024/01/24 11:53:23;;;;;;;2.60;1.48;;;20.40;46.00;;;;;;5065456;28;45406;-65
2024/01/24 11:55:55;;;;;;;2.63;1.40;;;20.40;46.10;;;;;;5065179;28;46681;-65
2024/01/24 11:58:25;;;;;;;2.33;1.25;;;20.40;46.20;;;;;;5094706;27;45443;-64
2024/01/24 12:00:52;;;;;;;3.03;1.15;;;20.40;46.20;;;;;;5087736;27;45318;-64
2024/01/24 12:03:19;;;;;;;4.78;1.60;;;20.40;46.40;;;;;;5097809;27;45436;-65
2024/01/24 12:05:46;;;;;;;2.45;1.58;;;20.30;46.50;;;;;;5104062;27;45427;-64
2024/01/24 12:08:14;;;;;;;2.63;1.30;;;20.30;46.50;;;;;;5104912;27;45198;-62
2024/01/24 12:10:41;;;;;;;1.25;1.10;;;20.30;47.20;;;;;;5105568;27;45260;-63
2024/01/24 12:13:08;;;;;;;3.05;1.80;;;20.30;46.60;;;;;;5106025;27;45432;-63
2024/01/24 12:15:35;;;;;;;5.07;1.35;;;20.30;46.60;;;;;;5092016;27;45369;-63
2024/01/24 12:18:04;;;;;;;1.35;1.15;;;20.30;46.70;;;;;;5100434;27;45311;-65
2024/01/24 12:20:31;;;;;;;3.75;1.33;;;20.20;46.80;;;;;;5075157;27;45278;-62
2024/01/24 12:22:58;;;;;;;2.35;1.10;;;20.20;46.80;;;;;;5096200;27;45566;-64
2024/01/24 12:25:26;;;;;;;2.97;1.67;;;20.20;46.80;;;;;;5086352;27;46400;-64
2024/01/24 12:27:53;;;;;;;3.85;1.42;;;20.20;46.70;;;;;;5101872;27;45612;-64
2024/01/24 12:30:20;;;;;;;3.60;1.60;;;20.20;46.80;;;;;;5093938;27;45473;-64
2024/01/24 12:32:47;;;;;;;2.50;1.20;;;20.20;46.80;;;;;;5085432;28;45419;-64
2024/01/24 12:35:14;;;;;;;1.30;1.13;;;20.20;46.90;;;;;;5100663;27;46382;-63
2024/01/24 12:37:41;;;;;;;1.83;1.35;;;20.10;46.90;;;;;;5069107;27;45342;-63
2024/01/24 12:40:11;;;;;;;1.20;1.10;;;20.10;46.90;;;;;;5102687;27;45401;-63
2024/01/24 12:42:40;;;;;;;1.65;1.33;;;20.10;46.80;;;;;;5105451;27;45366;-63
2024/01/24 12:45:10;;;;;;;0.95;0.95;;;20.10;47.00;;;;;;5105016;27;45357;-63
2024/01/24 12:47:37;;;;;;;2.22;1.40;;;20.00;47.00;;;;;;5087544;27;45324;-64